Time;durP1;ratioP1;P1;durP2;ratioP2;P2;SDS_P1;SDS_P2;PMS_P1;PMS_P2;Temp;Humidity;BMP_temperature;BMP_pressure;BME280_temperature;BME280_humidity;BME280_pressure;Samples;Min_cycle;Max_cycle;Signal;HPM_P1;HPM_P2
2021/09/28 00:02:15;;;;;;;;;15.00;15.00;;;;;12.69;78.31;101712.28;5111971;28;10276;-76
2021/09/28 00:05:12;;;;;;;;;16.75;16.75;;;;;12.74;78.18;101712.16;5112447;28;10457;-75
2021/09/28 00:08:08;;;;;;;;;17.00;17.00;;;;;12.66;78.52;101715.72;5098596;28;11290;-76
2021/09/28 00:11:04;;;;;;;;;18.50;18.00;;;;;12.60;78.97;101712.25;5112507;28;11169;-76
2021/09/28 00:13:31;;;;;;;;;13.50;13.50;;;;;12.52;78.99;101713.03;5095327;28;10599;-74
2021/09/28 00:16:31;;;;;;;;;14.50;14.50;;;;;12.70;78.44;101708.34;5111795;28;11203;-76
2021/09/28 00:19:26;;;;;;;;;9.75;9.75;;;;;12.63;78.51;101710.78;5111964;28;10641;-75
2021/09/28 00:22:22;;;;;;;;;12.50;12.00;;;;;12.57;78.81;101717.59;5098516;28;10552;-76
2021/09/28 00:25:17;;;;;;;;;15.00;15.00;;;;;12.59;78.78;101715.34;5111439;28;10393;-75
2021/09/28 00:28:13;;;;;;;;;10.00;10.00;;;;;12.60;78.67;101717.78;5113632;28;11278;-76
2021/09/28 00:31:08;;;;;;;;;9.25;9.25;;;;;12.71;78.15;101715.53;5116178;28;10418;-76
2021/09/28 00:33:36;;;;;;;;;16.00;14.00;;;;;12.69;78.40;101718.66;5099117;28;10526;-77
2021/09/28 00:36:32;;;;;;;;;13.25;13.25;;;;;12.75;78.07;101713.78;5116293;28;10358;-76
2021/09/28 00:39:27;;;;;;;;;8.75;8.75;;;;;12.61;78.65;101713.88;5115595;28;10466;-76
2021/09/28 00:42:23;;;;;;;;;9.50;9.25;;;;;12.65;78.33;101714.88;5115949;28;10287;-76
2021/09/28 00:45:19;;;;;;;;;9.25;9.25;;;;;12.64;78.55;101712.41;5101291;28;10341;-74
2021/09/28 00:48:14;;;;;;;;;9.25;9.25;;;;;12.73;78.33;101711.34;5115632;28;10999;-76
2021/09/28 00:51:11;;;;;;;;;12.00;12.00;;;;;12.58;78.44;101719.25;5102295;28;10268;-75
2021/09/28 00:54:07;;;;;;;;;11.25;11.25;;;;;12.64;78.24;101709.63;5115900;28;10225;-75
2021/09/28 00:57:06;;;;;;;;;6.50;6.25;;;;;12.57;78.45;101712.88;5095097;28;11272;-75
2021/09/28 01:00:05;;;;;;;;;9.50;9.50;;;;;12.55;78.99;101722.66;5094636;28;10949;-76
2021/09/28 01:02:32;;;;;;;;;9.25;9.25;;;;;12.50;78.86;101724.44;5088110;28;11040;-75
2021/09/28 01:05:28;;;;;;;;;12.50;12.50;;;;;12.54;78.76;101713.50;5115206;28;10242;-75
2021/09/28 01:08:23;;;;;;;;;9.00;9.00;;;;;12.55;78.68;101720.69;5115209;28;10586;-75
2021/09/28 01:11:20;;;;;;;;;9.25;9.25;;;;;12.35;79.03;101724.84;5115272;28;10256;-75
2021/09/28 01:14:16;;;;;;;;;10.00;10.00;;;;;12.35;79.12;101730.41;5115333;28;10106;-75
2021/09/28 01:17:14;;;;;;;;;6.75;6.75;;;;;12.34;79.08;101722.38;5102440;28;10212;-75
2021/09/28 01:20:10;;;;;;;;;14.00;13.75;;;;;12.35;79.15;101730.41;5101409;28;10366;-75
2021/09/28 01:22:39;;;;;;;;;12.00;12.00;;;;;12.29;79.35;101723.34;5116167;28;10612;-75
2021/09/28 01:25:34;;;;;;;;;11.75;11.75;;;;;12.28;79.65;101738.34;5111862;28;10532;-75
2021/09/28 01:28:30;;;;;;;;;11.50;11.50;;;;;12.31;79.28;101734.13;5114815;28;10556;-76
2021/09/28 01:31:25;;;;;;;;;14.50;13.75;;;;;12.29;79.16;101739.19;5101370;28;10436;-75
2021/09/28 01:34:21;;;;;;;;;15.00;15.00;;;;;12.27;78.99;101731.19;5115063;28;11288;-75
2021/09/28 01:37:16;;;;;;;;;15.00;15.00;;;;;12.17;79.26;101732.22;5114774;28;10603;-75
2021/09/28 01:40:12;;;;;;;;;16.25;16.25;;;;;12.23;79.28;101730.97;5113535;28;10691;-75
2021/09/28 01:43:10;;;;;;;;;17.50;17.50;;;;;12.13;79.16;101724.88;5114841;28;10776;-75
2021/09/28 01:45:57;;;;;;;;;14.50;14.50;;;;;12.02;78.95;101726.25;5115210;28;10860;-75
2021/09/28 01:48:53;;;;;;;;;15.75;15.75;;;;;12.06;78.94;101722.56;5114531;28;10535;-75
2021/09/28 01:51:35;;;;;;;;;18.00;18.00;;;;;12.08;79.19;101730.53;5115087;28;10708;-76
2021/09/28 01:54:31;;;;;;;;;19.25;19.25;;;;;12.07;79.45;101734.47;5114821;28;10855;-75
2021/09/28 01:57:27;;;;;;;;;15.50;15.50;;;;;12.06;79.78;101733.63;5114443;28;10913;-75
2021/09/28 02:00:23;;;;;;;;;17.25;17.25;;;;;11.84;80.82;101728.91;5081060;28;10888;-75
2021/09/28 02:03:19;;;;;;;;;14.50;14.50;;;;;11.94;80.26;101739.75;5080384;28;10734;-76
2021/09/28 02:06:17;;;;;;;;;18.75;17.75;;;;;11.85;81.09;101738.03;5092692;28;10857;-75
2021/09/28 02:09:14;;;;;;;;;14.25;14.25;;;;;11.80;81.42;101738.97;5113937;28;10768;-76
2021/09/28 02:12:09;;;;;;;;;14.75;14.75;;;;;11.88;81.38;101741.00;5113899;28;10765;-76
2021/09/28 02:15:06;;;;;;;;;14.75;14.75;;;;;11.86;81.58;101739.69;5100607;28;10834;-72
2021/09/28 02:18:07;;;;;;;;;16.00;16.00;;;;;11.61;82.48;101741.88;5108118;28;11023;-72
2021/09/28 02:20:35;;;;;;;;;10.50;10.50;;;;;11.73;82.08;101741.34;5115046;28;10672;-75
2021/09/28 02:23:30;;;;;;;;;17.75;16.75;;;;;11.76;82.11;101737.94;5113766;28;10899;-75
2021/09/28 02:26:26;;;;;;;;;17.00;17.00;;;;;11.67;82.39;101748.97;5113862;28;10925;-75
2021/09/28 02:29:21;;;;;;;;;14.75;14.75;;;;;11.55;83.05;101747.84;5113759;28;10848;-75
2021/09/28 02:32:17;;;;;;;;;14.00;14.00;;;;;11.57;83.48;101748.34;5113393;28;10818;-73
2021/09/28 02:35:13;;;;;;;;;14.00;14.00;;;;;11.54;83.20;101747.03;5093448;28;11439;-73
2021/09/28 02:38:08;;;;;;;;;15.25;15.25;;;;;11.68;82.64;101747.81;5093137;28;10957;-75
2021/09/28 02:41:04;;;;;;;;;16.75;16.25;;;;;11.76;82.36;101753.75;5093123;28;10853;-73
2021/09/28 02:44:00;;;;;;;;;14.00;14.00;;;;;11.77;82.18;101752.63;5093070;28;10695;-73
2021/09/28 02:46:29;;;;;;;;;16.00;16.00;;;;;11.68;82.19;101752.53;5076325;28;10698;-74
2021/09/28 02:49:25;;;;;;;;;22.00;21.00;;;;;11.63;82.54;101747.13;5092766;28;10713;-74
2021/09/28 02:52:20;;;;;;;;;22.25;22.25;;;;;11.55;83.06;101759.75;5079718;28;11066;-75
2021/09/28 02:55:16;;;;;;;;;22.75;22.75;;;;;11.44;83.93;101760.31;5079347;28;11159;-74
2021/09/28 02:58:11;;;;;;;;;24.75;23.25;;;;;11.29;84.40;101767.81;5079103;28;11587;-74
2021/09/28 03:01:07;;;;;;;;;26.00;25.75;;;;;11.45;84.17;101768.31;5079974;28;11917;-74
2021/09/28 03:04:04;;;;;;;;;26.50;23.75;;;;;11.40;84.48;101766.44;5102748;28;11439;-74
2021/09/28 03:07:00;;;;;;;;;25.75;25.75;;;;;11.39;84.46;101773.13;5112817;28;11522;-75
2021/09/28 03:09:55;;;;;;;;;29.25;29.00;;;;;11.39;84.59;101781.44;5112807;28;11543;-74
2021/09/28 03:12:51;;;;;;;;;25.00;25.00;;;;;11.39;84.45;101786.16;5099362;28;11454;-74
2021/09/28 03:15:47;;;;;;;;;31.25;28.25;;;;;11.40;84.67;101777.53;5112999;28;11577;-76
2021/09/28 03:18:42;;;;;;;;;28.25;27.50;;;;;11.54;84.54;101783.06;5112597;28;11515;-75
2021/09/28 03:21:38;;;;;;;;;36.75;36.00;;;;;11.62;84.09;101793.41;5113458;28;11505;-74
2021/09/28 03:24:33;;;;;;;;;36.50;35.00;;;;;11.75;83.48;101783.44;5099046;28;11546;-75
2021/09/28 03:27:29;;;;;;;;;40.00;36.00;;;;;11.74;82.87;101792.88;5099199;28;11510;-74
2021/09/28 03:30:24;;;;;;;;;41.50;38.50;;;;;11.86;82.86;101781.25;5112835;28;11523;-74
2021/09/28 03:33:20;;;;;;;;;36.50;35.75;;;;;11.86;82.61;101789.56;5112164;28;11475;-75
2021/09/28 03:36:16;;;;;;;;;42.75;39.75;;;;;11.92;82.74;101789.13;5078921;28;11490;-75
2021/09/28 03:39:12;;;;;;;;;40.25;37.50;;;;;11.99;82.12;101788.72;5078584;28;11448;-74
2021/09/28 03:42:07;;;;;;;;;40.75;37.25;;;;;12.02;82.40;101792.81;5105448;28;11536;-74
2021/09/28 03:45:04;;;;;;;;;31.25;31.25;;;;;12.00;82.36;101789.53;5098275;28;12096;-75
2021/09/28 03:47:59;;;;;;;;;34.50;34.50;;;;;12.16;81.94;101788.84;5112030;28;11459;-73
2021/09/28 03:50:55;;;;;;;;;37.00;36.00;;;;;12.14;82.08;101796.66;5112871;28;11419;-73
2021/09/28 03:53:52;;;;;;;;;22.75;22.75;;;;;12.15;81.80;101794.72;5111501;28;11137;-74
2021/09/28 03:56:48;;;;;;;;;21.75;21.75;;;;;12.32;81.39;101797.59;5112302;28;11009;-74
2021/09/28 03:59:46;;;;;;;;;17.50;17.25;;;;;12.16;81.79;101807.44;5090432;28;10855;-74
2021/09/28 04:02:42;;;;;;;;;14.25;14.25;;;;;12.28;81.48;101804.09;5095171;28;10756;-74
2021/09/28 04:05:38;;;;;;;;;26.00;26.00;;;;;12.24;81.49;101806.69;5097171;28;11592;-74
2021/09/28 04:08:10;;;;;;;;;24.00;24.00;;;;;12.23;81.47;101808.63;5094618;28;11002;-74
2021/09/28 04:11:06;;;;;;;;;25.25;25.25;;;;;12.24;81.44;101810.28;5102738;28;11195;-74
2021/09/28 04:14:01;;;;;;;;;28.25;27.00;;;;;12.23;82.16;101807.81;5101227;28;11755;-75
2021/09/28 04:16:57;;;;;;;;;28.00;27.75;;;;;12.30;81.86;101808.19;5094470;28;11174;-74
2021/09/28 04:19:53;;;;;;;;;23.25;23.25;;;;;12.37;81.44;101808.56;5102524;28;10937;-75
2021/09/28 04:22:49;;;;;;;;;28.75;27.75;;;;;12.29;81.91;101812.13;5098113;28;10937;-75
2021/09/28 04:25:46;;;;;;;;;23.00;23.00;;;;;12.39;81.64;101811.84;5095640;28;10849;-74
2021/09/28 04:28:41;;;;;;;;;28.25;28.25;;;;;12.50;81.38;101807.69;5092554;28;11665;-72
2021/09/28 04:31:37;;;;;;;;;25.75;25.75;;;;;12.54;81.04;101810.63;5115698;28;10934;-71
2021/09/28 04:34:32;;;;;;;;;26.00;23.75;;;;;12.56;81.09;101813.91;5115538;28;11006;-72
2021/09/28 04:37:28;;;;;;;;;23.25;23.25;;;;;12.61;80.41;101816.56;5115869;28;11053;-72
2021/09/28 04:39:56;;;;;;;;;22.75;22.75;;;;;12.59;80.30;101823.56;5098953;28;10869;-72
2021/09/28 04:42:24;;;;;;;;;20.50;19.75;;;;;12.49;80.58;101819.91;5099162;28;10948;-71
2021/09/28 04:44:52;;;;;;;;;19.00;19.00;;;;;12.31;81.09;101820.09;5116645;28;10739;-74
2021/09/28 04:47:19;;;;;;;;;15.75;14.75;;;;;12.41;81.21;101820.66;5081894;28;10477;-72
2021/09/28 04:49:47;;;;;;;;;16.75;16.75;;;;;12.29;81.61;101819.63;5098197;28;10409;-72
2021/09/28 04:52:15;;;;;;;;;15.25;15.25;;;;;12.55;80.84;101826.16;5116807;28;11313;-72
2021/09/28 04:54:43;;;;;;;;;15.50;15.50;;;;;12.65;80.31;101831.47;5116830;28;10404;-72
2021/09/28 04:57:10;;;;;;;;;16.75;16.75;;;;;12.64;80.56;101831.75;5116738;28;10486;-72
2021/09/28 04:59:38;;;;;;;;;18.00;18.00;;;;;12.79;80.08;101834.13;5098518;28;10552;-72
2021/09/28 05:02:06;;;;;;;;;17.00;17.00;;;;;12.92;79.42;101833.22;5116782;28;10229;-72
2021/09/28 05:04:34;;;;;;;;;15.25;15.25;;;;;13.03;79.02;101837.38;5116579;28;10387;-72
2021/09/28 05:07:02;;;;;;;;;20.00;15.50;;;;;13.10;78.78;101831.34;5116131;28;10403;-72
2021/09/28 05:09:32;;;;;;;;;16.00;16.00;;;;;13.21;78.25;101840.25;5116308;28;10574;-72
2021/09/28 05:12:00;;;;;;;;;12.50;12.25;;;;;13.10;78.29;101842.44;5098673;28;10387;-72
2021/09/28 05:14:29;;;;;;;;;16.75;16.75;;;;;13.23;77.99;101841.56;5115425;28;10144;-72
2021/09/28 05:16:57;;;;;;;;;16.75;16.75;;;;;13.09;77.80;101851.91;5116447;28;10162;-71
2021/09/28 05:19:27;;;;;;;;;16.25;16.25;;;;;13.29;77.41;101851.41;5116322;28;10413;-72
2021/09/28 05:21:55;;;;;;;;;21.00;20.00;;;;;13.37;77.15;101851.75;5116004;28;10330;-72
2021/09/28 05:24:23;;;;;;;;;15.50;15.50;;;;;13.46;76.96;101847.03;5115988;28;10097;-72
2021/09/28 05:26:51;;;;;;;;;14.50;14.00;;;;;13.59;76.87;101848.88;5115981;28;10169;-73
2021/09/28 05:29:19;;;;;;;;;17.50;14.00;;;;;13.63;76.08;101847.06;5115770;28;10113;-72
2021/09/28 05:31:47;;;;;;;;;12.00;12.00;;;;;13.85;75.70;101854.47;5115436;28;10252;-72
2021/09/28 05:34:16;;;;;;;;;16.50;16.50;;;;;13.94;75.42;101855.31;5115984;28;10626;-72
2021/09/28 05:36:44;;;;;;;;;20.00;20.00;;;;;14.00;74.94;101851.22;5115801;28;9918;-73
2021/09/28 05:39:11;;;;;;;;;18.25;18.25;;;;;13.99;74.34;101848.78;5115989;28;10014;-72
2021/09/28 05:41:39;;;;;;;;;25.50;23.50;;;;;14.04;74.52;101851.41;5115870;28;9761;-72
2021/09/28 05:44:07;;;;;;;;;20.00;20.00;;;;;14.02;74.12;101856.47;5115860;28;10091;-73
2021/09/28 05:46:34;;;;;;;;;20.25;19.75;;;;;14.21;73.62;101856.16;5115695;28;9879;-72
2021/09/28 05:49:02;;;;;;;;;19.75;19.75;;;;;14.37;73.18;101849.75;5097413;28;9930;-73
2021/09/28 05:51:32;;;;;;;;;20.50;15.00;;;;;14.49;72.75;101863.03;5115662;28;9917;-73
2021/09/28 05:54:02;;;;;;;;;22.50;21.50;;;;;14.71;72.63;101856.44;5115414;28;9863;-73
2021/09/28 05:56:31;;;;;;;;;19.75;19.75;;;;;14.81;71.61;101858.09;5115380;28;10718;-72
2021/09/28 05:58:59;;;;;;;;;20.50;19.75;;;;;14.89;70.98;101866.41;5115032;28;9906;-74
2021/09/28 06:01:27;;;;;;;;;67.00;40.75;;;;;15.04;70.97;101867.84;5097337;28;9716;-72
2021/09/28 06:03:55;;;;;;;;;18.75;17.25;;;;;14.99;69.68;101874.41;5115255;28;10733;-74
2021/09/28 06:06:27;;;;;;;;;16.75;15.75;;;;;14.84;69.55;101877.72;5115284;28;9629;-74
2021/09/28 06:08:56;;;;;;;;;13.00;13.00;;;;;15.00;69.36;101883.59;5115107;28;9747;-74
2021/09/28 06:11:23;;;;;;;;;15.00;15.00;;;;;15.13;69.57;101879.78;5115027;28;9526;-74
2021/09/28 06:13:51;;;;;;;;;13.67;13.67;;;;;15.21;69.02;101886.47;5115347;28;10264;-74
2021/09/28 06:16:19;;;;;;;;;16.00;15.00;;;;;15.35;68.60;101887.09;5097112;28;9481;-74
2021/09/28 06:19:06;;;;;;;;;21.75;18.50;;;;;15.45;67.79;101883.09;5114904;28;9613;-74
2021/09/28 06:21:47;;;;;;;;;16.67;16.67;;;;;15.27;67.58;101885.16;5115297;28;9462;-74
2021/09/28 06:24:15;;;;;;;;;14.75;14.75;;;;;15.45;67.24;101894.25;5115017;28;9310;-74
2021/09/28 06:26:44;;;;;;;;;18.25;17.50;;;;;15.70;67.05;101887.75;5113924;28;9517;-73
2021/09/28 06:29:12;;;;;;;;;12.25;12.25;;;;;15.40;66.79;101886.88;5114769;28;9511;-73
2021/09/28 06:31:42;;;;;;;;;15.67;15.00;;;;;15.65;66.76;101885.16;5097065;28;9456;-73
2021/09/28 06:34:11;;;;;;;;;18.00;18.00;;;;;15.76;65.72;101891.16;5115059;28;9262;-73
2021/09/28 06:36:39;;;;;;;;;10.50;10.50;;;;;15.62;65.13;101894.19;5114993;28;9083;-73
2021/09/28 06:39:11;;;;;;;;;15.00;15.00;;;;;15.94;64.84;101889.06;5114536;28;9278;-73
2021/09/28 06:41:39;;;;;;;;;16.00;16.00;;;;;16.08;64.76;101887.66;5114847;28;9238;-73
2021/09/28 06:44:07;;;;;;;;;10.67;10.67;;;;;16.23;63.38;101889.03;5096360;28;9815;-73
2021/09/28 06:46:36;;;;;;;;;12.67;12.67;;;;;16.36;63.19;101898.31;5114705;28;9010;-72
2021/09/28 06:49:04;;;;;;;;;11.50;11.50;;;;;16.35;61.94;101897.47;5114402;28;8991;-72
2021/09/28 06:51:32;;;;;;;;;14.33;13.67;;;;;16.05;61.63;101895.91;5114334;28;8845;-72
2021/09/28 06:54:00;;;;;;;;;10.33;10.33;;;;;16.20;61.83;101897.28;5113650;28;9127;-73
2021/09/28 06:56:28;;;;;;;;;7.75;7.75;;;;;16.23;60.84;101899.38;5096941;28;8923;-72
2021/09/28 06:59:24;;;;;;;;;11.25;10.75;;;;;16.58;60.55;101905.50;5107555;28;8825;-72
2021/09/28 07:02:19;;;;;;;;;15.50;14.50;;;;;16.77;59.80;101900.25;5092472;28;8862;-72
2021/09/28 07:05:15;;;;;;;;;12.00;12.00;;;;;17.00;60.15;101897.06;5094416;28;8939;-72
2021/09/28 07:08:00;;;;;;;;;13.25;11.75;;;;;17.41;58.27;101896.09;5111671;28;8852;-72
2021/09/28 07:10:30;;;;;;;;;11.50;11.25;;;;;17.15;58.67;101897.22;5113361;28;8879;-71
2021/09/28 07:13:08;;;;;;;;;11.50;11.50;;;;;17.03;58.08;101893.59;5096848;28;8868;-72
2021/09/28 07:16:04;;;;;;;;;10.75;10.75;;;;;17.18;57.86;101896.53;5084278;28;8844;-73
2021/09/28 07:19:00;;;;;;;;;32.00;22.33;;;;;17.26;57.04;101894.81;5102438;28;8821;-71
2021/09/28 07:21:29;;;;;;;;;10.75;10.75;;;;;17.61;56.85;101900.75;5113550;28;8930;-71
2021/09/28 07:23:57;;;;;;;;;15.25;14.75;;;;;17.55;55.96;101901.31;5094019;28;8822;-73
2021/09/28 07:26:53;;;;;;;;;10.00;9.50;;;;;17.62;55.09;101904.38;5092447;28;8827;-72
2021/09/28 07:29:49;;;;;;;;;10.75;10.75;;;;;17.66;54.02;101920.13;5093587;28;8838;-72
2021/09/28 07:32:44;;;;;;;;;10.75;10.75;;;;;17.52;53.71;101912.06;5112019;28;8857;-72
2021/09/28 07:35:44;;;;;;;;;11.00;11.00;;;;;17.81;54.25;101915.00;5099089;28;8849;-72
2021/09/28 07:38:26;;;;;;;;;11.75;11.50;;;;;17.82;53.55;101914.66;5112210;28;8838;-72
2021/09/28 07:41:22;;;;;;;;;8.50;8.50;;;;;17.86;52.86;101909.97;5093166;28;8847;-73
2021/09/28 07:44:17;;;;;;;;;7.50;7.50;;;;;17.88;52.77;101910.47;5085879;28;8833;-73
2021/09/28 07:47:14;;;;;;;;;10.25;10.25;;;;;18.23;53.11;101913.53;5098660;28;8834;-72
2021/09/28 07:50:25;;;;;;;;;10.50;10.50;;;;;18.13;53.70;101913.22;5092332;28;8799;-73
2021/09/28 07:53:20;;;;;;;;;6.50;6.50;;;;;18.25;52.20;101911.22;5078529;28;8870;-73
2021/09/28 07:56:17;;;;;;;;;9.25;9.25;;;;;18.73;52.16;101908.63;5099933;28;8809;-73
2021/09/28 07:59:13;;;;;;;;;8.75;8.75;;;;;18.12;51.30;101912.41;5098694;28;8865;-73
2021/09/28 08:02:08;;;;;;;;;6.75;6.75;;;;;18.09;50.70;101917.88;5112176;28;8829;-73
2021/09/28 08:05:05;;;;;;;;;7.00;7.00;;;;;18.27;50.95;101903.28;5097543;28;8849;-72
2021/09/28 08:07:34;;;;;;;;;6.75;6.75;;;;;18.04;51.22;101916.97;5112491;28;8846;-72
2021/09/28 08:10:29;;;;;;;;;6.75;6.75;;;;;17.60;51.38;101909.50;5112095;28;8909;-72
2021/09/28 08:13:25;;;;;;;;;8.25;7.50;;;;;17.73;52.00;101906.38;5112018;28;9684;-72
2021/09/28 08:16:22;;;;;;;;;7.25;7.25;;;;;17.73;51.02;101911.16;5110691;28;8923;-72
2021/09/28 08:19:17;;;;;;;;;5.50;5.50;;;;;17.20;50.41;101904.56;5099422;28;8940;-73
2021/09/28 08:21:57;;;;;;;;;8.00;8.00;;;;;17.57;51.39;101907.41;5097133;28;8940;-72
2021/09/28 08:24:54;;;;;;;;;8.25;7.25;;;;;17.63;51.50;101904.00;5111724;28;8853;-73
2021/09/28 08:30:55;;;;;;;;;8.75;8.75;;;;;17.61;50.87;101909.16;5112976;28;8914;-72
2021/09/28 08:33:50;;;;;;;;;4.00;4.00;;;;;17.68;50.24;101905.78;5111721;28;8826;-72
2021/09/28 08:36:47;;;;;;;;;6.00;6.00;;;;;17.46;50.47;101912.63;5111464;28;8828;-73
2021/09/28 08:39:42;;;;;;;;;6.25;6.25;;;;;17.28;50.26;101905.63;5112060;28;8848;-72
2021/09/28 08:42:10;;;;;;;;;10.00;7.75;;;;;17.20;50.48;101912.94;5113117;28;8895;-73
2021/09/28 08:45:07;;;;;;;;;7.00;7.00;;;;;17.68;49.72;101903.78;5107033;28;8932;-72
2021/09/28 08:48:03;;;;;;;;;5.00;5.00;;;;;17.91;49.28;101904.16;5077925;28;8823;-72
2021/09/28 08:50:59;;;;;;;;;11.00;10.50;;;;;18.37;49.05;101901.97;5106040;28;8813;-72
2021/09/28 08:53:55;;;;;;;;;6.50;6.50;;;;;18.33;48.58;101901.03;5115733;28;8852;-73
2021/09/28 08:56:51;;;;;;;;;7.25;7.25;;;;;18.04;48.92;101910.56;5100750;28;9560;-72
2021/09/28 08:59:19;;;;;;;;;7.00;7.00;;;;;18.22;49.20;101897.91;5114509;28;9003;-76
2021/09/28 09:02:02;;;;;;;;;6.00;6.00;;;;;18.60;48.88;101900.22;5116690;28;8832;-73
2021/09/28 09:04:30;;;;;;;;;7.75;6.00;;;;;18.76;48.77;101893.91;5116589;28;8860;-73
2021/09/28 09:06:57;;;;;;;;;5.00;4.50;;;;;19.03;48.95;101884.66;5116438;28;8920;-73
2021/09/28 09:09:46;;;;;;;;;8.00;6.50;;;;;18.81;46.60;101904.84;5116369;28;8863;-73
2021/09/28 09:12:32;;;;;;;;;7.25;7.25;;;;;19.13;46.30;101895.31;5116637;28;8823;-73
2021/09/28 09:15:17;;;;;;;;;8.00;8.00;;;;;19.19;47.13;101904.28;5116647;28;8832;-74
2021/09/28 09:17:45;;;;;;;;;5.75;5.75;;;;;19.30;45.59;101904.56;5116357;28;8835;-73
2021/09/28 09:20:41;;;;;;;;;4.00;4.00;;;;;19.28;46.05;101909.72;5116177;28;8852;-74
2021/09/28 09:23:15;;;;;;;;;5.75;5.75;;;;;19.07;45.61;101904.34;5114344;28;8864;-73
2021/09/28 09:25:46;;;;;;;;;9.00;9.00;;;;;19.06;44.39;101911.94;5098516;28;8851;-73
2021/09/28 09:28:33;;;;;;;;;6.75;6.50;;;;;19.55;45.33;101910.78;5097691;28;8848;-74
2021/09/28 09:31:09;;;;;;;;;9.75;7.75;;;;;19.67;46.71;101916.34;5116003;28;8835;-72
2021/09/28 09:33:38;;;;;;;;;5.00;5.00;;;;;19.53;46.10;101913.16;5098225;28;8816;-73
2021/09/28 09:36:06;;;;;;;;;7.00;7.00;;;;;19.39;45.60;101920.03;5116205;28;8856;-74
2021/09/28 09:38:42;;;;;;;;;8.00;8.00;;;;;19.68;45.70;101918.78;5115735;28;8832;-72
2021/09/28 09:41:10;;;;;;;;;7.50;7.50;;;;;19.97;44.82;101913.88;5115982;28;8847;-73
2021/09/28 09:43:39;;;;;;;;;10.25;7.00;;;;;20.14;43.43;101924.69;5115824;28;9607;-73
2021/09/28 09:46:18;;;;;;;;;6.75;6.75;;;;;20.42;43.83;101932.13;5097962;28;8824;-73
2021/09/28 09:48:48;;;;;;;;;4.50;4.50;;;;;20.11;42.95;101927.44;5115600;28;9615;-73
2021/09/28 09:51:19;;;;;;;;;6.00;4.75;;;;;20.04;42.99;101921.66;5097696;28;8836;-73
2021/09/28 09:53:59;;;;;;;;;7.75;7.75;;;;;19.73;43.22;101919.72;5115453;28;8848;-73
2021/09/28 09:56:46;;;;;;;;;6.50;5.00;;;;;19.66;43.30;101928.75;5115773;28;8828;-73
2021/09/28 09:59:16;;;;;;;;;10.25;7.75;;;;;19.67;43.26;101925.59;5114967;28;8852;-73
2021/09/28 10:01:45;;;;;;;;;7.50;7.50;;;;;19.35;44.34;101935.16;5115327;28;8832;-74
2021/09/28 10:04:16;;;;;;;;;9.25;9.25;;;;;19.14;44.96;101925.00;5114970;28;8840;-71
2021/09/28 10:06:44;;;;;;;;;13.75;10.75;;;;;19.51;44.73;101933.16;5115169;28;8855;-73
2021/09/28 10:09:17;;;;;;;;;8.75;8.00;;;;;19.28;45.51;101924.56;5097050;28;8859;-74
2021/09/28 10:11:54;;;;;;;;;9.50;8.00;;;;;19.68;44.88;101918.78;5115390;28;8882;-73
2021/09/28 10:14:37;;;;;;;;;7.50;7.50;;;;;19.87;44.00;101926.47;5112160;28;9691;-74
2021/09/28 10:17:17;;;;;;;;;7.75;7.75;;;;;19.84;44.47;101929.19;5115166;28;8945;-73
2021/09/28 10:19:53;;;;;;;;;6.75;6.75;;;;;19.59;42.86;101928.59;5115167;28;8928;-73
2021/09/28 10:22:40;;;;;;;;;8.25;7.25;;;;;19.51;43.79;101938.78;5115244;28;9635;-72
2021/09/28 10:25:23;;;;;;;;;5.25;5.25;;;;;19.62;43.00;101933.47;5115020;28;8843;-73
2021/09/28 10:27:57;;;;;;;;;6.25;6.25;;;;;19.43;42.21;101929.38;5114632;28;8855;-72
2021/09/28 10:30:38;;;;;;;;;6.00;6.00;;;;;19.43;43.23;101934.16;5096787;28;8917;-73
2021/09/28 10:33:22;;;;;;;;;7.50;7.50;;;;;19.43;43.35;101926.56;5097060;28;9626;-72
2021/09/28 10:36:13;;;;;;;;;7.25;7.25;;;;;19.53;41.89;101919.59;5114903;28;8851;-72
2021/09/28 10:38:41;;;;;;;;;5.25;5.25;;;;;20.01;41.75;101920.38;5096842;28;8856;-74
2021/09/28 10:41:46;;;;;;;;;4.25;4.25;;;;;19.92;40.61;101928.19;5114757;28;8832;-74
2021/09/28 10:44:24;;;;;;;;;4.50;4.50;;;;;20.39;41.14;101928.03;4996016;28;8962;-72
2021/09/28 10:46:56;;;;;;;;;3.50;3.50;;;;;20.74;39.04;101928.03;5103763;28;8919;-74
2021/09/28 10:49:27;;;;;;;;;6.00;6.00;;;;;21.15;38.62;101922.78;5114436;28;8831;-74
2021/09/28 10:52:19;;;;;;;;;5.25;3.75;;;;;20.77;38.39;101920.84;5096901;28;8933;-74
2021/09/28 10:55:05;;;;;;;;;4.50;4.50;;;;;20.61;38.90;101920.91;5096859;28;8838;-73
2021/09/28 10:57:55;;;;;;;;;3.00;3.00;;;;;20.58;39.09;101912.41;5114320;28;8827;-73
2021/09/28 11:01:08;;;;;;;;;3.50;3.50;;;;;20.40;38.60;101921.25;5096674;28;8827;-73
2021/09/28 11:03:44;;;;;;;;;4.50;4.50;;;;;20.59;38.22;101914.03;5114576;28;8903;-73
2021/09/28 11:06:12;;;;;;;;;4.00;4.00;;;;;20.76;38.75;101914.41;5096531;28;8827;-74
2021/09/28 11:08:53;;;;;;;;;6.00;6.00;;;;;20.69;38.92;101919.88;5114085;28;8839;-73
2021/09/28 11:11:42;;;;;;;;;4.75;4.75;;;;;20.59;39.74;101914.84;5113423;28;8843;-72
2021/09/28 11:14:37;;;;;;;;;5.25;3.75;;;;;19.82;39.76;101921.13;5111527;28;8830;-74
2021/09/28 11:17:33;;;;;;;;;4.00;4.00;;;;;19.91;40.82;101913.31;5113066;28;9600;-72
2021/09/28 11:20:31;;;;;;;;;3.50;3.50;;;;;20.11;40.86;101919.00;5087513;28;8832;-73
2021/09/28 11:23:26;;;;;;;;;7.25;6.75;;;;;20.28;40.49;101915.78;5096426;28;8829;-73
2021/09/28 11:26:09;;;;;;;;;7.00;6.00;;;;;20.09;40.33;101919.38;5113411;28;8854;-73
2021/09/28 11:29:13;;;;;;;;;6.75;6.50;;;;;19.92;40.81;101905.72;5112324;28;8935;-73
2021/09/28 11:32:10;;;;;;;;;4.00;4.00;;;;;19.90;40.90;101914.50;5084383;28;8845;-73
2021/09/28 11:34:57;;;;;;;;;5.75;4.00;;;;;19.86;40.19;101915.59;5118722;27;8831;-72
2021/09/28 11:37:55;;;;;;;;;3.75;3.75;;;;;19.46;39.78;101910.97;5111579;28;8853;-73
2021/09/28 11:40:57;;;;;;;;;6.75;5.75;;;;;19.49;40.08;101915.88;5099074;28;8822;-72
2021/09/28 11:43:30;;;;;;;;;6.00;5.00;;;;;19.68;39.62;101923.59;5109813;28;8918;-73
2021/09/28 11:46:00;;;;;;;;;7.75;7.75;;;;;19.65;42.18;101921.53;5093782;28;8865;-74
2021/09/28 11:48:59;;;;;;;;;7.00;7.00;;;;;19.31;44.24;101929.44;5088138;28;8866;-74
2021/09/28 11:51:56;;;;;;;;;6.75;6.75;;;;;19.16;44.92;101933.84;5111767;28;8815;-73
2021/09/28 11:54:52;;;;;;;;;9.50;6.25;;;;;19.40;44.40;101938.50;5098303;28;8827;-74
2021/09/28 11:57:50;;;;;;;;;7.00;7.00;;;;;19.17;43.90;101941.13;5097239;28;8831;-74
2021/09/28 12:00:18;;;;;;;;;8.25;8.25;;;;;19.27;43.94;101944.56;5090995;28;8832;-74
2021/09/28 12:03:14;;;;;;;;;6.00;6.00;;;;;19.24;44.33;101942.44;5110744;28;8866;-76
2021/09/28 12:08:47;;;;;;;;;8.75;8.75;;;;;18.63;45.19;101943.53;5109209;28;8869;-73
2021/09/28 12:12:02;;;;;;;;;5.00;4.25;;;;;18.59;45.28;101949.03;5108461;28;8865;-74
2021/09/28 12:15:06;;;;;;;;;5.50;5.25;;;;;18.60;45.34;101947.06;5097614;28;8822;-73
2021/09/28 12:18:16;;;;;;;;;6.50;6.50;;;;;18.43;46.28;101942.56;5108385;28;8857;-73
2021/09/28 12:21:13;;;;;;;;;9.00;8.50;;;;;18.65;45.67;101951.59;5111728;28;8827;-73
2021/09/28 12:24:18;;;;;;;;;6.25;6.25;;;;;18.54;45.54;101956.88;5115620;28;8853;-72
2021/09/28 12:27:13;;;;;;;;;3.25;3.25;;;;;18.45;44.71;101959.81;5116350;28;8911;-73
2021/09/28 12:30:09;;;;;;;;;7.00;7.00;;;;;18.55;44.94;101966.91;5116462;28;8838;-73
2021/09/28 12:33:07;;;;;;;;;7.25;6.00;;;;;18.65;45.37;101954.41;5116274;28;9645;-73
2021/09/28 12:35:37;;;;;;;;;6.75;6.00;;;;;18.65;45.31;101963.63;5117368;28;8949;-72
2021/09/28 12:38:32;;;;;;;;;8.50;8.50;;;;;18.55;45.43;101964.91;5115976;28;8811;-71
2021/09/28 12:41:28;;;;;;;;;8.50;8.00;;;;;18.67;45.37;101968.91;5117027;28;8831;-72
2021/09/28 12:44:25;;;;;;;;;8.00;8.00;;;;;18.41;45.25;101967.31;5115798;28;8833;-72
2021/09/28 12:47:59;;;;;;;;;7.75;7.75;;;;;18.60;45.76;101973.09;5112103;28;8825;-72
2021/09/28 12:51:03;;;;;;;;;7.75;7.75;;;;;18.75;45.13;101967.94;5104159;28;8839;-72